sensor_id;sensor_type;location;lat;lon;timestamp;P1;durP1;ratioP1;P2;durP2;ratioP2
63699;SDS011;49845;47.130;142.766;2022-08-25T00:00:14;4.53;;;1.10;;
63699;SDS011;49845;47.130;142.766;2022-08-25T00:03:18;3.67;;;1.00;;
63699;SDS011;49845;47.130;142.766;2022-08-25T00:06:02;10.27;;;1.87;;
63699;SDS011;49845;47.130;142.766;2022-08-25T00:08:53;10.40;;;1.30;;
63699;SDS011;49845;47.130;142.766;2022-08-25T00:14:11;10.00;;;1.30;;
63699;SDS011;49845;47.130;142.766;2022-08-25T00:17:13;4.73;;;0.90;;
63699;SDS011;49845;47.130;142.766;2022-08-25T00:20:00;7.13;;;1.03;;
63699;SDS011;49845;47.130;142.766;2022-08-25T00:22:51;5.90;;;1.30;;
63699;SDS011;49845;47.130;142.766;2022-08-25T00:25:40;9.37;;;1.20;;
63699;SDS011;49845;47.130;142.766;2022-08-25T00:28:39;17.50;;;1.93;;
63699;SDS011;49845;47.130;142.766;2022-08-25T00:31:59;11.57;;;1.13;;
63699;SDS011;49845;47.130;142.766;2022-08-25T00:35:09;7.13;;;1.10;;
63699;SDS011;49845;47.130;142.766;2022-08-25T00:37:54;12.07;;;1.50;;
63699;SDS011;49845;47.130;142.766;2022-08-25T00:40:56;11.07;;;1.40;;
63699;SDS011;49845;47.130;142.766;2022-08-25T00:43:45;9.87;;;1.50;;
63699;SDS011;49845;47.130;142.766;2022-08-25T00:46:32;11.23;;;1.50;;
63699;SDS011;49845;47.130;142.766;2022-08-25T00:49:27;19.47;;;1.77;;
63699;SDS011;49845;47.130;142.766;2022-08-25T00:52:19;8.00;;;1.07;;
63699;SDS011;49845;47.130;142.766;2022-08-25T00:55:00;6.83;;;1.40;;
63699;SDS011;49845;47.130;142.766;2022-08-25T00:58:08;17.90;;;1.20;;
63699;SDS011;49845;47.130;142.766;2022-08-25T01:01:22;7.17;;;1.20;;
63699;SDS011;49845;47.130;142.766;2022-08-25T01:04:01;10.07;;;1.50;;
63699;SDS011;49845;47.130;142.766;2022-08-25T01:06:55;9.77;;;1.13;;
63699;SDS011;49845;47.130;142.766;2022-08-25T01:09:45;6.93;;;1.33;;
63699;SDS011;49845;47.130;142.766;2022-08-25T01:12:31;4.03;;;0.80;;
63699;SDS011;49845;47.130;142.766;2022-08-25T01:15:15;10.37;;;1.20;;
63699;SDS011;49845;47.130;142.766;2022-08-25T01:18:08;13.60;;;1.40;;
63699;SDS011;49845;47.130;142.766;2022-08-25T01:24:18;9.57;;;1.17;;
63699;SDS011;49845;47.130;142.766;2022-08-25T01:27:18;7.23;;;1.23;;
63699;SDS011;49845;47.130;142.766;2022-08-25T01:32:39;7.80;;;1.00;;
63699;SDS011;49845;47.130;142.766;2022-08-25T01:35:16;31.23;;;2.70;;
63699;SDS011;49845;47.130;142.766;2022-08-25T01:38:02;10.07;;;1.37;;
63699;SDS011;49845;47.130;142.766;2022-08-25T01:40:53;27.63;;;2.13;;
63699;SDS011;49845;47.130;142.766;2022-08-25T01:43:30;7.33;;;1.30;;
63699;SDS011;49845;47.130;142.766;2022-08-25T01:46:32;8.17;;;1.17;;
63699;SDS011;49845;47.130;142.766;2022-08-25T01:49:12;10.27;;;1.17;;
63699;SDS011;49845;47.130;142.766;2022-08-25T01:51:52;11.30;;;0.98;;
63699;SDS011;49845;47.130;142.766;2022-08-25T01:54:51;4.60;;;1.10;;
63699;SDS011;49845;47.130;142.766;2022-08-25T01:57:32;9.10;;;1.03;;
63699;SDS011;49845;47.130;142.766;2022-08-25T02:00:19;13.60;;;1.60;;
63699;SDS011;49845;47.130;142.766;2022-08-25T02:02:56;7.90;;;1.40;;
63699;SDS011;49845;47.130;142.766;2022-08-25T02:05:49;14.03;;;1.20;;
63699;SDS011;49845;47.130;142.766;2022-08-25T02:08:48;7.82;;;0.98;;
63699;SDS011;49845;47.130;142.766;2022-08-25T02:11:43;9.77;;;1.00;;
63699;SDS011;49845;47.130;142.766;2022-08-25T02:14:42;6.23;;;1.67;;
63699;SDS011;49845;47.130;142.766;2022-08-25T02:17:33;8.60;;;1.20;;
63699;SDS011;49845;47.130;142.766;2022-08-25T02:20:15;14.77;;;1.30;;
63699;SDS011;49845;47.130;142.766;2022-08-25T02:22:59;11.53;;;1.20;;
63699;SDS011;49845;47.130;142.766;2022-08-25T02:25:45;6.00;;;0.88;;
63699;SDS011;49845;47.130;142.766;2022-08-25T02:28:33;8.07;;;1.10;;
63699;SDS011;49845;47.130;142.766;2022-08-25T02:31:14;7.87;;;1.23;;
63699;SDS011;49845;47.130;142.766;2022-08-25T02:33:52;4.67;;;1.10;;
63699;SDS011;49845;47.130;142.766;2022-08-25T02:36:29;7.18;;;1.10;;
63699;SDS011;49845;47.130;142.766;2022-08-25T02:39:14;39.23;;;2.10;;
63699;SDS011;49845;47.130;142.766;2022-08-25T02:42:02;7.55;;;1.10;;
63699;SDS011;49845;47.130;142.766;2022-08-25T02:44:41;9.23;;;1.60;;
63699;SDS011;49845;47.130;142.766;2022-08-25T02:47:27;8.43;;;1.30;;
63699;SDS011;49845;47.130;142.766;2022-08-25T02:50:35;13.50;;;1.40;;
63699;SDS011;49845;47.130;142.766;2022-08-25T02:53:25;8.90;;;0.93;;
63699;SDS011;49845;47.130;142.766;2022-08-25T02:56:19;11.87;;;1.50;;
63699;SDS011;49845;47.130;142.766;2022-08-25T02:59:06;4.80;;;0.90;;
63699;SDS011;49845;47.130;142.766;2022-08-25T03:05:02;14.00;;;1.70;;
63699;SDS011;49845;47.130;142.766;2022-08-25T03:07:39;9.00;;;1.10;;
63699;SDS011;49845;47.130;142.766;2022-08-25T03:10:19;10.47;;;1.30;;
63699;SDS011;49845;47.130;142.766;2022-08-25T03:13:10;3.50;;;0.65;;
63699;SDS011;49845;47.130;142.766;2022-08-25T03:15:52;10.60;;;1.00;;
63699;SDS011;49845;47.130;142.766;2022-08-25T03:22:15;23.07;;;3.10;;
63699;SDS011;49845;47.130;142.766;2022-08-25T03:25:45;9.80;;;1.23;;
63699;SDS011;49845;47.130;142.766;2022-08-25T03:32:14;10.47;;;1.23;;
63699;SDS011;49845;47.130;142.766;2022-08-25T03:35:06;19.43;;;1.83;;
63699;SDS011;49845;47.130;142.766;2022-08-25T03:37:52;10.27;;;1.30;;
63699;SDS011;49845;47.130;142.766;2022-08-25T03:40:36;47.20;;;2.85;;
63699;SDS011;49845;47.130;142.766;2022-08-25T03:43:30;8.33;;;0.93;;
63699;SDS011;49845;47.130;142.766;2022-08-25T03:46:18;7.13;;;1.13;;
63699;SDS011;49845;47.130;142.766;2022-08-25T03:49:15;6.67;;;1.10;;
63699;SDS011;49845;47.130;142.766;2022-08-25T03:52:08;9.97;;;1.00;;
63699;SDS011;49845;47.130;142.766;2022-08-25T03:54:50;6.20;;;0.97;;
63699;SDS011;49845;47.130;142.766;2022-08-25T03:58:06;17.20;;;1.50;;
63699;SDS011;49845;47.130;142.766;2022-08-25T04:00:48;8.90;;;0.80;;
63699;SDS011;49845;47.130;142.766;2022-08-25T04:03:26;13.13;;;1.48;;
63699;SDS011;49845;47.130;142.766;2022-08-25T04:06:04;56.53;;;4.20;;
63699;SDS011;49845;47.130;142.766;2022-08-25T04:08:51;17.10;;;1.27;;
63699;SDS011;49845;47.130;142.766;2022-08-25T04:11:42;13.80;;;1.10;;
63699;SDS011;49845;47.130;142.766;2022-08-25T04:14:36;9.23;;;1.00;;
63699;SDS011;49845;47.130;142.766;2022-08-25T04:17:24;77.03;;;5.05;;
63699;SDS011;49845;47.130;142.766;2022-08-25T04:20:11;10.03;;;1.33;;
63699;SDS011;49845;47.130;142.766;2022-08-25T04:22:51;8.57;;;1.07;;
63699;SDS011;49845;47.130;142.766;2022-08-25T04:25:29;9.43;;;1.30;;
63699;SDS011;49845;47.130;142.766;2022-08-25T04:28:33;29.17;;;2.40;;
63699;SDS011;49845;47.130;142.766;2022-08-25T04:31:13;16.90;;;2.43;;
63699;SDS011;49845;47.130;142.766;2022-08-25T04:33:56;72.87;;;5.23;;
63699;SDS011;49845;47.130;142.766;2022-08-25T04:36:57;6.53;;;1.20;;
63699;SDS011;49845;47.130;142.766;2022-08-25T04:39:35;7.10;;;1.30;;
63699;SDS011;49845;47.130;142.766;2022-08-25T04:42:12;8.97;;;1.77;;
63699;SDS011;49845;47.130;142.766;2022-08-25T04:45:03;11.93;;;1.30;;
63699;SDS011;49845;47.130;142.766;2022-08-25T04:47:55;11.17;;;2.20;;
63699;SDS011;49845;47.130;142.766;2022-08-25T04:50:55;9.43;;;1.40;;
63699;SDS011;49845;47.130;142.766;2022-08-25T04:53:46;14.83;;;1.20;;
63699;SDS011;49845;47.130;142.766;2022-08-25T04:56:25;6.70;;;1.30;;
63699;SDS011;49845;47.130;142.766;2022-08-25T04:59:14;7.27;;;1.17;;
63699;SDS011;49845;47.130;142.766;2022-08-25T05:02:02;18.97;;;1.97;;
63699;SDS011;49845;47.130;142.766;2022-08-25T05:07:22;4.87;;;0.90;;
63699;SDS011;49845;47.130;142.766;2022-08-25T05:10:10;10.43;;;1.40;;
63699;SDS011;49845;47.130;142.766;2022-08-25T05:12:55;10.10;;;1.20;;
63699;SDS011;49845;47.130;142.766;2022-08-25T05:15:33;30.33;;;2.00;;
63699;SDS011;49845;47.130;142.766;2022-08-25T05:21:51;39.20;;;2.50;;
63699;SDS011;49845;47.130;142.766;2022-08-25T05:24:42;8.17;;;1.23;;
63699;SDS011;49845;47.130;142.766;2022-08-25T05:27:25;13.10;;;1.00;;
63699;SDS011;49845;47.130;142.766;2022-08-25T05:30:09;18.07;;;1.33;;
63699;SDS011;49845;47.130;142.766;2022-08-25T05:32:54;42.53;;;3.20;;
63699;SDS011;49845;47.130;142.766;2022-08-25T05:35:39;13.07;;;1.07;;
63699;SDS011;49845;47.130;142.766;2022-08-25T05:38:20;44.47;;;3.13;;
63699;SDS011;49845;47.130;142.766;2022-08-25T05:41:04;7.57;;;1.10;;
63699;SDS011;49845;47.130;142.766;2022-08-25T05:43:58;13.93;;;1.23;;
63699;SDS011;49845;47.130;142.766;2022-08-25T05:46:41;4.30;;;1.27;;
63699;SDS011;49845;47.130;142.766;2022-08-25T05:49:26;7.77;;;0.80;;
63699;SDS011;49845;47.130;142.766;2022-08-25T05:52:12;11.55;;;1.08;;
63699;SDS011;49845;47.130;142.766;2022-08-25T05:54:47;9.17;;;1.17;;
63699;SDS011;49845;47.130;142.766;2022-08-25T05:57:25;17.17;;;1.80;;
63699;SDS011;49845;47.130;142.766;2022-08-25T06:00:09;7.57;;;1.40;;
63699;SDS011;49845;47.130;142.766;2022-08-25T06:02:55;12.87;;;1.30;;
63699;SDS011;49845;47.130;142.766;2022-08-25T06:05:37;12.97;;;1.00;;
63699;SDS011;49845;47.130;142.766;2022-08-25T06:08:24;10.57;;;1.30;;
63699;SDS011;49845;47.130;142.766;2022-08-25T06:11:30;10.20;;;1.23;;
63699;SDS011;49845;47.130;142.766;2022-08-25T06:14:36;14.97;;;1.10;;
63699;SDS011;49845;47.130;142.766;2022-08-25T06:18:53;8.67;;;1.57;;
63699;SDS011;49845;47.130;142.766;2022-08-25T06:21:42;6.47;;;1.20;;
63699;SDS011;49845;47.130;142.766;2022-08-25T06:24:36;10.30;;;1.50;;
63699;SDS011;49845;47.130;142.766;2022-08-25T06:27:14;15.67;;;1.57;;
63699;SDS011;49845;47.130;142.766;2022-08-25T06:29:57;11.57;;;1.20;;
63699;SDS011;49845;47.130;142.766;2022-08-25T06:32:55;10.27;;;1.92;;
63699;SDS011;49845;47.130;142.766;2022-08-25T06:35:46;12.47;;;1.27;;
63699;SDS011;49845;47.130;142.766;2022-08-25T06:39:03;15.03;;;1.87;;
63699;SDS011;49845;47.130;142.766;2022-08-25T06:49:09;20.47;;;1.20;;
63699;SDS011;49845;47.130;142.766;2022-08-25T06:52:15;13.40;;;1.43;;
63699;SDS011;49845;47.130;142.766;2022-08-25T06:55:06;8.47;;;1.40;;
63699;SDS011;49845;47.130;142.766;2022-08-25T06:58:08;9.47;;;1.17;;
63699;SDS011;49845;47.130;142.766;2022-08-25T07:01:23;6.77;;;1.00;;
63699;SDS011;49845;47.130;142.766;2022-08-25T07:04:34;9.17;;;0.90;;
63699;SDS011;49845;47.130;142.766;2022-08-25T07:07:19;10.17;;;1.07;;
63699;SDS011;49845;47.130;142.766;2022-08-25T07:10:11;9.13;;;1.57;;
63699;SDS011;49845;47.130;142.766;2022-08-25T07:13:01;6.23;;;0.70;;
63699;SDS011;49845;47.130;142.766;2022-08-25T07:15:47;21.20;;;1.93;;
63699;SDS011;49845;47.130;142.766;2022-08-25T07:18:58;9.17;;;0.97;;
63699;SDS011;49845;47.130;142.766;2022-08-25T07:22:09;8.73;;;1.53;;
63699;SDS011;49845;47.130;142.766;2022-08-25T07:24:48;11.45;;;0.95;;
63699;SDS011;49845;47.130;142.766;2022-08-25T07:28:00;6.00;;;1.10;;
63699;SDS011;49845;47.130;142.766;2022-08-25T07:30:46;3.80;;;1.13;;
63699;SDS011;49845;47.130;142.766;2022-08-25T07:33:32;32.90;;;2.33;;
63699;SDS011;49845;47.130;142.766;2022-08-25T07:36:30;32.23;;;2.77;;
63699;SDS011;49845;47.130;142.766;2022-08-25T07:39:20;24.53;;;2.30;;
63699;SDS011;49845;47.130;142.766;2022-08-25T07:42:12;16.70;;;2.07;;
63699;SDS011;49845;47.130;142.766;2022-08-25T07:45:11;8.77;;;1.10;;
63699;SDS011;49845;47.130;142.766;2022-08-25T07:48:24;14.23;;;1.73;;
63699;SDS011;49845;47.130;142.766;2022-08-25T07:51:31;37.17;;;4.60;;
63699;SDS011;49845;47.130;142.766;2022-08-25T07:58:00;8.83;;;1.10;;
63699;SDS011;49845;47.130;142.766;2022-08-25T08:01:23;8.63;;;1.13;;
63699;SDS011;49845;47.130;142.766;2022-08-25T08:04:13;9.53;;;1.20;;
63699;SDS011;49845;47.130;142.766;2022-08-25T08:07:21;14.43;;;1.60;;
63699;SDS011;49845;47.130;142.766;2022-08-25T08:10:34;23.27;;;2.37;;
63699;SDS011;49845;47.130;142.766;2022-08-25T08:13:33;15.57;;;2.00;;
63699;SDS011;49845;47.130;142.766;2022-08-25T08:16:19;13.57;;;1.53;;
63699;SDS011;49845;47.130;142.766;2022-08-25T08:19:14;10.40;;;1.20;;
63699;SDS011;49845;47.130;142.766;2022-08-25T08:21:59;8.90;;;1.60;;
63699;SDS011;49845;47.130;142.766;2022-08-25T08:24:50;29.40;;;3.43;;
63699;SDS011;49845;47.130;142.766;2022-08-25T08:27:53;7.07;;;1.17;;
63699;SDS011;49845;47.130;142.766;2022-08-25T08:30:46;14.20;;;1.50;;
63699;SDS011;49845;47.130;142.766;2022-08-25T08:33:45;9.03;;;1.20;;
63699;SDS011;49845;47.130;142.766;2022-08-25T08:36:44;11.13;;;1.30;;
63699;SDS011;49845;47.130;142.766;2022-08-25T08:46:57;13.53;;;1.87;;
63699;SDS011;49845;47.130;142.766;2022-08-25T08:57:22;8.95;;;1.08;;
63699;SDS011;49845;47.130;142.766;2022-08-25T09:00:45;77.57;;;5.03;;
63699;SDS011;49845;47.130;142.766;2022-08-25T09:03:53;8.43;;;1.40;;
63699;SDS011;49845;47.130;142.766;2022-08-25T09:06:57;20.63;;;2.40;;
63699;SDS011;49845;47.130;142.766;2022-08-25T09:10:05;27.73;;;2.73;;
63699;SDS011;49845;47.130;142.766;2022-08-25T09:16:22;9.07;;;2.10;;
63699;SDS011;49845;47.130;142.766;2022-08-25T09:23:09;8.03;;;1.63;;
63699;SDS011;49845;47.130;142.766;2022-08-25T09:30:17;12.98;;;1.90;;
63699;SDS011;49845;47.130;142.766;2022-08-25T09:36:44;9.53;;;1.50;;
63699;SDS011;49845;47.130;142.766;2022-08-25T09:39:46;12.30;;;1.67;;
63699;SDS011;49845;47.130;142.766;2022-08-25T09:42:47;7.00;;;2.13;;
63699;SDS011;49845;47.130;142.766;2022-08-25T09:45:39;16.23;;;2.80;;
63699;SDS011;49845;47.130;142.766;2022-08-25T09:58:30;13.77;;;1.73;;
63699;SDS011;49845;47.130;142.766;2022-08-25T10:01:45;16.47;;;1.90;;
63699;SDS011;49845;47.130;142.766;2022-08-25T10:04:29;53.13;;;3.75;;
63699;SDS011;49845;47.130;142.766;2022-08-25T10:11:14;17.77;;;3.20;;
63699;SDS011;49845;47.130;142.766;2022-08-25T10:21:14;23.37;;;2.20;;
63699;SDS011;49845;47.130;142.766;2022-08-25T10:23:55;9.83;;;1.80;;
63699;SDS011;49845;47.130;142.766;2022-08-25T10:26:44;17.60;;;2.70;;
63699;SDS011;49845;47.130;142.766;2022-08-25T10:29:47;14.57;;;2.40;;
63699;SDS011;49845;47.130;142.766;2022-08-25T10:32:59;16.17;;;2.43;;
63699;SDS011;49845;47.130;142.766;2022-08-25T10:36:46;43.97;;;3.73;;
63699;SDS011;49845;47.130;142.766;2022-08-25T10:43:45;16.58;;;2.70;;
63699;SDS011;49845;47.130;142.766;2022-08-25T10:56:05;16.67;;;2.20;;
63699;SDS011;49845;47.130;142.766;2022-08-25T10:57:46;14.73;;;2.87;;
63699;SDS011;49845;47.130;142.766;2022-08-25T11:03:31;19.00;;;5.00;;
63699;SDS011;49845;47.130;142.766;2022-08-25T11:06:24;18.93;;;4.10;;
63699;SDS011;49845;47.130;142.766;2022-08-25T11:09:05;15.80;;;4.20;;
63699;SDS011;49845;47.130;142.766;2022-08-25T11:11:56;13.13;;;3.35;;
63699;SDS011;49845;47.130;142.766;2022-08-25T11:14:45;11.40;;;2.77;;
63699;SDS011;49845;47.130;142.766;2022-08-25T11:17:47;15.87;;;2.93;;
63699;SDS011;49845;47.130;142.766;2022-08-25T11:20:31;19.73;;;3.00;;
63699;SDS011;49845;47.130;142.766;2022-08-25T11:23:35;16.00;;;3.77;;
63699;SDS011;49845;47.130;142.766;2022-08-25T11:26:29;27.93;;;4.23;;
63699;SDS011;49845;47.130;142.766;2022-08-25T11:29:31;22.13;;;3.63;;
63699;SDS011;49845;47.130;142.766;2022-08-25T11:32:18;19.10;;;2.97;;
63699;SDS011;49845;47.130;142.766;2022-08-25T11:35:19;21.43;;;3.27;;
63699;SDS011;49845;47.130;142.766;2022-08-25T11:38:31;21.10;;;3.33;;
63699;SDS011;49845;47.130;142.766;2022-08-25T11:41:39;20.73;;;3.50;;
63699;SDS011;49845;47.130;142.766;2022-08-25T11:44:35;27.63;;;3.57;;
63699;SDS011;49845;47.130;142.766;2022-08-25T11:47:39;24.37;;;3.50;;
63699;SDS011;49845;47.130;142.766;2022-08-25T11:57:37;12.93;;;2.43;;
63699;SDS011;49845;47.130;142.766;2022-08-25T12:00:37;17.30;;;3.60;;
63699;SDS011;49845;47.130;142.766;2022-08-25T12:04:01;13.80;;;2.97;;
63699;SDS011;49845;47.130;142.766;2022-08-25T12:07:28;10.90;;;2.27;;
63699;SDS011;49845;47.130;142.766;2022-08-25T12:11:04;11.07;;;2.10;;
63699;SDS011;49845;47.130;142.766;2022-08-25T12:13:46;9.05;;;1.85;;
63699;SDS011;49845;47.130;142.766;2022-08-25T12:20:03;16.03;;;2.60;;
63699;SDS011;49845;47.130;142.766;2022-08-25T12:22:58;44.13;;;6.30;;
63699;SDS011;49845;47.130;142.766;2022-08-25T12:29:03;14.60;;;2.93;;
63699;SDS011;49845;47.130;142.766;2022-08-25T12:31:51;15.95;;;2.70;;
63699;SDS011;49845;47.130;142.766;2022-08-25T12:38:04;10.27;;;2.23;;
63699;SDS011;49845;47.130;142.766;2022-08-25T12:41:00;10.70;;;5.32;;
63699;SDS011;49845;47.130;142.766;2022-08-25T12:43:43;18.77;;;10.57;;
63699;SDS011;49845;47.130;142.766;2022-08-25T12:46:38;14.90;;;8.57;;
63699;SDS011;49845;47.130;142.766;2022-08-25T12:49:28;8.60;;;4.67;;
63699;SDS011;49845;47.130;142.766;2022-08-25T12:52:09;11.90;;;4.57;;
63699;SDS011;49845;47.130;142.766;2022-08-25T12:54:50;11.80;;;3.87;;
63699;SDS011;49845;47.130;142.766;2022-08-25T12:57:39;11.53;;;2.73;;
63699;SDS011;49845;47.130;142.766;2022-08-25T13:00:27;6.93;;;2.00;;
63699;SDS011;49845;47.130;142.766;2022-08-25T13:04:12;9.32;;;1.95;;
63699;SDS011;49845;47.130;142.766;2022-08-25T13:10:43;9.30;;;1.40;;
63699;SDS011;49845;47.130;142.766;2022-08-25T13:13:36;7.60;;;2.07;;
63699;SDS011;49845;47.130;142.766;2022-08-25T13:16:33;6.50;;;1.83;;
63699;SDS011;49845;47.130;142.766;2022-08-25T13:19:17;10.03;;;2.20;;
63699;SDS011;49845;47.130;142.766;2022-08-25T13:22:09;10.43;;;2.00;;
63699;SDS011;49845;47.130;142.766;2022-08-25T13:25:22;5.30;;;1.52;;
63699;SDS011;49845;47.130;142.766;2022-08-25T13:28:06;14.50;;;2.07;;
63699;SDS011;49845;47.130;142.766;2022-08-25T13:31:05;8.07;;;1.50;;
63699;SDS011;49845;47.130;142.766;2022-08-25T13:33:56;9.87;;;1.50;;
63699;SDS011;49845;47.130;142.766;2022-08-25T13:37:04;6.20;;;1.83;;
63699;SDS011;49845;47.130;142.766;2022-08-25T13:40:08;8.53;;;1.73;;
63699;SDS011;49845;47.130;142.766;2022-08-25T13:43:10;10.63;;;2.27;;
63699;SDS011;49845;47.130;142.766;2022-08-25T13:45:55;10.33;;;2.20;;
63699;SDS011;49845;47.130;142.766;2022-08-25T13:48:37;16.60;;;2.73;;
63699;SDS011;49845;47.130;142.766;2022-08-25T13:51:21;15.00;;;2.53;;
63699;SDS011;49845;47.130;142.766;2022-08-25T13:54:00;12.47;;;2.00;;
63699;SDS011;49845;47.130;142.766;2022-08-25T13:56:46;11.23;;;2.10;;
63699;SDS011;49845;47.130;142.766;2022-08-25T13:59:37;6.47;;;1.97;;
63699;SDS011;49845;47.130;142.766;2022-08-25T14:02:44;10.68;;;2.20;;
63699;SDS011;49845;47.130;142.766;2022-08-25T14:05:43;11.63;;;1.80;;
63699;SDS011;49845;47.130;142.766;2022-08-25T14:11:57;8.67;;;1.80;;
63699;SDS011;49845;47.130;142.766;2022-08-25T14:14:49;5.57;;;2.67;;
63699;SDS011;49845;47.130;142.766;2022-08-25T14:17:34;14.67;;;2.33;;
63699;SDS011;49845;47.130;142.766;2022-08-25T14:20:24;10.20;;;2.07;;
63699;SDS011;49845;47.130;142.766;2022-08-25T14:23:09;10.00;;;2.40;;
63699;SDS011;49845;47.130;142.766;2022-08-25T14:29:23;15.23;;;3.40;;
63699;SDS011;49845;47.130;142.766;2022-08-25T14:32:34;15.47;;;3.30;;
63699;SDS011;49845;47.130;142.766;2022-08-25T14:36:03;18.13;;;3.40;;
63699;SDS011;49845;47.130;142.766;2022-08-25T14:39:25;16.57;;;3.17;;
63699;SDS011;49845;47.130;142.766;2022-08-25T14:49:31;22.33;;;3.10;;
63699;SDS011;49845;47.130;142.766;2022-08-25T14:52:12;10.90;;;2.70;;
63699;SDS011;49845;47.130;142.766;2022-08-25T14:55:36;18.17;;;3.87;;
63699;SDS011;49845;47.130;142.766;2022-08-25T14:58:27;18.67;;;3.53;;
63699;SDS011;49845;47.130;142.766;2022-08-25T15:01:17;11.17;;;2.67;;
63699;SDS011;49845;47.130;142.766;2022-08-25T15:04:01;19.77;;;2.87;;
63699;SDS011;49845;47.130;142.766;2022-08-25T15:06:53;14.13;;;3.23;;
63699;SDS011;49845;47.130;142.766;2022-08-25T15:09:34;13.37;;;3.67;;
63699;SDS011;49845;47.130;142.766;2022-08-25T15:12:28;11.00;;;2.70;;
63699;SDS011;49845;47.130;142.766;2022-08-25T15:15:17;18.50;;;2.97;;
63699;SDS011;49845;47.130;142.766;2022-08-25T15:18:23;12.88;;;2.90;;
63699;SDS011;49845;47.130;142.766;2022-08-25T15:21:05;13.83;;;2.87;;
63699;SDS011;49845;47.130;142.766;2022-08-25T15:23:54;14.50;;;3.07;;
63699;SDS011;49845;47.130;142.766;2022-08-25T15:26:39;12.00;;;3.15;;
63699;SDS011;49845;47.130;142.766;2022-08-25T15:29:21;13.40;;;2.80;;
63699;SDS011;49845;47.130;142.766;2022-08-25T15:32:04;18.20;;;2.67;;
63699;SDS011;49845;47.130;142.766;2022-08-25T15:34:46;14.93;;;3.00;;
63699;SDS011;49845;47.130;142.766;2022-08-25T15:37:34;10.10;;;2.77;;
63699;SDS011;49845;47.130;142.766;2022-08-25T15:40:24;12.90;;;2.50;;
63699;SDS011;49845;47.130;142.766;2022-08-25T15:43:14;11.77;;;2.50;;
63699;SDS011;49845;47.130;142.766;2022-08-25T15:45:52;11.50;;;2.47;;
63699;SDS011;49845;47.130;142.766;2022-08-25T15:48:49;11.97;;;3.00;;
63699;SDS011;49845;47.130;142.766;2022-08-25T15:51:31;22.63;;;3.57;;
63699;SDS011;49845;47.130;142.766;2022-08-25T15:54:16;10.77;;;3.50;;
63699;SDS011;49845;47.130;142.766;2022-08-25T15:57:02;12.83;;;4.37;;
63699;SDS011;49845;47.130;142.766;2022-08-25T15:59:50;16.67;;;4.50;;
63699;SDS011;49845;47.130;142.766;2022-08-25T16:02:45;14.07;;;4.67;;
63699;SDS011;49845;47.130;142.766;2022-08-25T16:05:27;19.70;;;5.40;;
63699;SDS011;49845;47.130;142.766;2022-08-25T16:08:15;16.30;;;5.43;;
63699;SDS011;49845;47.130;142.766;2022-08-25T16:10:57;11.77;;;4.80;;
63699;SDS011;49845;47.130;142.766;2022-08-25T16:16:34;15.07;;;5.47;;
63699;SDS011;49845;47.130;142.766;2022-08-25T16:19:12;16.33;;;5.13;;
63699;SDS011;49845;47.130;142.766;2022-08-25T16:21:55;9.47;;;4.80;;
63699;SDS011;49845;47.130;142.766;2022-08-25T16:24:54;20.00;;;5.23;;
63699;SDS011;49845;47.130;142.766;2022-08-25T16:27:40;15.57;;;5.07;;
63699;SDS011;49845;47.130;142.766;2022-08-25T16:33:29;16.17;;;5.60;;
63699;SDS011;49845;47.130;142.766;2022-08-25T16:36:24;13.57;;;4.40;;
63699;SDS011;49845;47.130;142.766;2022-08-25T16:39:03;13.30;;;4.53;;
63699;SDS011;49845;47.130;142.766;2022-08-25T16:41:56;11.60;;;4.70;;
63699;SDS011;49845;47.130;142.766;2022-08-25T16:44:51;14.67;;;4.70;;
63699;SDS011;49845;47.130;142.766;2022-08-25T16:47:31;11.80;;;3.60;;
63699;SDS011;49845;47.130;142.766;2022-08-25T16:50:29;14.23;;;3.93;;
63699;SDS011;49845;47.130;142.766;2022-08-25T16:53:09;9.63;;;3.35;;
63699;SDS011;49845;47.130;142.766;2022-08-25T16:56:04;10.60;;;3.90;;
63699;SDS011;49845;47.130;142.766;2022-08-25T16:59:17;12.90;;;3.13;;
63699;SDS011;49845;47.130;142.766;2022-08-25T17:02:04;11.67;;;3.20;;
63699;SDS011;49845;47.130;142.766;2022-08-25T17:04:58;10.83;;;3.37;;
63699;SDS011;49845;47.130;142.766;2022-08-25T17:07:45;7.10;;;3.10;;
63699;SDS011;49845;47.130;142.766;2022-08-25T17:10:46;10.53;;;3.43;;
63699;SDS011;49845;47.130;142.766;2022-08-25T17:13:34;8.30;;;3.67;;
63699;SDS011;49845;47.130;142.766;2022-08-25T17:16:25;8.77;;;3.40;;
63699;SDS011;49845;47.130;142.766;2022-08-25T17:19:15;9.20;;;3.80;;
63699;SDS011;49845;47.130;142.766;2022-08-25T17:22:03;10.60;;;4.10;;
63699;SDS011;49845;47.130;142.766;2022-08-25T17:24:48;8.93;;;3.50;;
63699;SDS011;49845;47.130;142.766;2022-08-25T17:27:54;8.77;;;3.63;;
63699;SDS011;49845;47.130;142.766;2022-08-25T17:30:47;6.53;;;3.43;;
63699;SDS011;49845;47.130;142.766;2022-08-25T17:33:39;11.40;;;3.47;;
63699;SDS011;49845;47.130;142.766;2022-08-25T17:36:31;10.27;;;3.73;;
63699;SDS011;49845;47.130;142.766;2022-08-25T17:39:12;15.93;;;5.17;;
63699;SDS011;49845;47.130;142.766;2022-08-25T17:41:52;14.90;;;5.03;;
63699;SDS011;49845;47.130;142.766;2022-08-25T17:44:46;16.20;;;4.73;;
63699;SDS011;49845;47.130;142.766;2022-08-25T17:47:28;7.27;;;5.70;;
63699;SDS011;49845;47.130;142.766;2022-08-25T17:50:11;11.23;;;6.30;;
63699;SDS011;49845;47.130;142.766;2022-08-25T17:52:55;12.70;;;7.03;;
63699;SDS011;49845;47.130;142.766;2022-08-25T17:55:35;10.90;;;6.47;;
63699;SDS011;49845;47.130;142.766;2022-08-25T17:58:14;15.63;;;6.57;;
63699;SDS011;49845;47.130;142.766;2022-08-25T18:01:06;12.73;;;5.83;;
63699;SDS011;49845;47.130;142.766;2022-08-25T18:03:49;15.47;;;6.33;;
63699;SDS011;49845;47.130;142.766;2022-08-25T18:06:24;14.43;;;6.67;;
63699;SDS011;49845;47.130;142.766;2022-08-25T18:09:02;20.60;;;6.97;;
63699;SDS011;49845;47.130;142.766;2022-08-25T18:11:57;14.60;;;7.00;;
63699;SDS011;49845;47.130;142.766;2022-08-25T18:14:40;13.50;;;7.43;;
63699;SDS011;49845;47.130;142.766;2022-08-25T18:17:27;12.70;;;6.47;;
63699;SDS011;49845;47.130;142.766;2022-08-25T18:20:08;16.13;;;7.70;;
63699;SDS011;49845;47.130;142.766;2022-08-25T18:23:07;11.37;;;6.57;;
63699;SDS011;49845;47.130;142.766;2022-08-25T18:25:49;7.97;;;4.00;;
63699;SDS011;49845;47.130;142.766;2022-08-25T18:28:51;6.70;;;3.13;;
63699;SDS011;49845;47.130;142.766;2022-08-25T18:31:31;10.33;;;3.27;;
63699;SDS011;49845;47.130;142.766;2022-08-25T18:34:40;7.93;;;2.60;;
63699;SDS011;49845;47.130;142.766;2022-08-25T18:37:38;6.83;;;2.57;;
63699;SDS011;49845;47.130;142.766;2022-08-25T18:40:29;5.87;;;2.43;;
63699;SDS011;49845;47.130;142.766;2022-08-25T18:43:09;9.10;;;2.60;;
63699;SDS011;49845;47.130;142.766;2022-08-25T18:45:52;8.10;;;2.90;;
63699;SDS011;49845;47.130;142.766;2022-08-25T18:48:38;7.87;;;2.87;;
63699;SDS011;49845;47.130;142.766;2022-08-25T18:51:20;9.27;;;3.20;;
63699;SDS011;49845;47.130;142.766;2022-08-25T18:54:00;5.50;;;2.70;;
63699;SDS011;49845;47.130;142.766;2022-08-25T18:56:52;9.37;;;2.83;;
63699;SDS011;49845;47.130;142.766;2022-08-25T18:59:35;9.80;;;2.70;;